Maersk Trieste — 9V5156 — position and weather

sailwx.info

Track history (hours):
 
Tides and Currents Weather Stations Pressure Air Temp Water Temp Dewpoint Dewpoint Depression Visibility Wind Speed Wind Dir Waves Ship Positions

Maersk Trieste

Last reported at 2017-Oct-08 05:03 UTC. Time now 2017-Oct-17 22:35 UTC.
Position N 29°30' W 094°52'.
Warning: this ship's position is 9 days out of date.

Length 183 m; draft 11.3 m.

Type: Ship. MMSI: 563008400.

Date/timePositionNaut miles runAvg speedWind from/ knotsBaromVisibWave heightAir tempDewpointWater temp
2017-Oct-08 05:03N 29°30' W 094°52'111.1
2017-Oct-08 05:00N 29°30' W 094°52'510.9
2017-Oct-08 04:30N 29°35' W 094°56'510.6
2017-Oct-08 04:00N 29°39' W 094°58'4 8.3
2017-Oct-08 03:30N 29°43' W 095°01'  
2017-Oct-04 22:18N 29°44' W 095°01'0 0.5
2017-Oct-04 22:00N 29°44' W 095°01'2 4.0
2017-Oct-04 21:30N 29°42' W 094°60'510.9
2017-Oct-04 21:00N 29°37' W 094°57'611.8
2017-Oct-04 20:30N 29°32' W 094°54'612.0
2017-Oct-04 20:00N 29°27' W 094°50'  
2017-Oct-01 14:18N 25°32' W 079°35'413.2
2017-Oct-01 13:59N 25°36' W 079°34'613.4
2017-Oct-01 13:30N 25°42' W 079°33'713.4
2017-Oct-01 13:00N 25°49' W 079°32'713.1
2017-Oct-01 12:30N 25°55' W 079°31'912.9
2017-Oct-01 11:47N 26°04' W 079°29'413.0
2017-Oct-01 11:30N 26°08' W 079°29'613.0
2017-Oct-01 11:01N 26°14' W 079°27'712.8
2017-Oct-01 10:30N 26°21' W 079°26'  
2017-Sep-28 16:08N 39°49' W 073°22'213.3
2017-Sep-28 15:59N 39°51' W 073°22'2212.5
2017-Sep-28 14:12N 40°12' W 073°32'313.8
2017-Sep-28 13:59N 40°14' W 073°35'714.3
2017-Sep-28 13:30N 40°19' W 073°41'713.1
2017-Sep-28 13:00N 40°24' W 073°47'610.9
2017-Sep-28 12:28N 40°28' W 073°52'613.4
2017-Sep-28 12:00N 40°31' W 073°59'713.1
2017-Sep-28 11:30N 40°37' W 074°03'1 2.6
2017-Sep-28 10:59N 40°38' W 074°04'0 0.0
2017-Sep-28 10:30N 40°38' W 074°04'0 0.0
2017-Sep-28 10:00N 40°38' W 074°04'0 0.0
2017-Sep-28 09:29N 40°38' W 074°04'0 0.0
2017-Sep-28 09:00N 40°38' W 074°04'0 0.0
2017-Sep-28 08:30N 40°38' W 074°04'0 0.2
2017-Sep-28 07:59N 40°38' W 074°04'0 0.2
2017-Sep-28 07:30N 40°38' W 074°04'0 0.0
2017-Sep-28 07:00N 40°38' W 074°04'0 0.0
2017-Sep-28 06:29N 40°38' W 074°04'0 0.0
2017-Sep-28 06:00N 40°38' W 074°04'0 0.0
2017-Sep-28 05:30N 40°38' W 074°04'  
Track history (hours):
 
Tides and Currents Weather Stations Pressure Air Temp Water Temp Dewpoint Dewpoint Depression Visibility Wind Speed Wind Dir Waves Ship Positions

Maersk Trieste

Last reported at 2017-Oct-08 05:03 UTC. Time now 2017-Oct-17 22:35 UTC.
Position N 29°30' W 094°52'.
Warning: this ship's position is 9 days out of date.

Length 183 m; draft 11.3 m.

Type: Ship. MMSI: 563008400.

Date/timePositionNaut miles runAvg speedWind from/ knotsBaromVisibWave heightAir tempDewpointWater temp
2017-Oct-08 05:03N 29°30' W 094°52'111.1
2017-Oct-08 05:00N 29°30' W 094°52'510.9
2017-Oct-08 04:30N 29°35' W 094°56'510.6
2017-Oct-08 04:00N 29°39' W 094°58'4 8.3
2017-Oct-08 03:30N 29°43' W 095°01'  
2017-Oct-04 22:18N 29°44' W 095°01'0 0.5
2017-Oct-04 22:00N 29°44' W 095°01'2 4.0
2017-Oct-04 21:30N 29°42' W 094°60'510.9
2017-Oct-04 21:00N 29°37' W 094°57'611.8
2017-Oct-04 20:30N 29°32' W 094°54'612.0
2017-Oct-04 20:00N 29°27' W 094°50'  
2017-Oct-01 14:18N 25°32' W 079°35'413.2
2017-Oct-01 13:59N 25°36' W 079°34'613.4
2017-Oct-01 13:30N 25°42' W 079°33'713.4
2017-Oct-01 13:00N 25°49' W 079°32'713.1
2017-Oct-01 12:30N 25°55' W 079°31'912.9
2017-Oct-01 11:47N 26°04' W 079°29'413.0
2017-Oct-01 11:30N 26°08' W 079°29'613.0
2017-Oct-01 11:01N 26°14' W 079°27'712.8
2017-Oct-01 10:30N 26°21' W 079°26'  
2017-Sep-28 16:08N 39°49' W 073°22'213.3
2017-Sep-28 15:59N 39°51' W 073°22'2212.5
2017-Sep-28 14:12N 40°12' W 073°32'313.8
2017-Sep-28 13:59N 40°14' W 073°35'714.3
2017-Sep-28 13:30N 40°19' W 073°41'713.1
2017-Sep-28 13:00N 40°24' W 073°47'610.9
2017-Sep-28 12:28N 40°28' W 073°52'613.4
2017-Sep-28 12:00N 40°31' W 073°59'713.1
2017-Sep-28 11:30N 40°37' W 074°03'1 2.6
2017-Sep-28 10:59N 40°38' W 074°04'0 0.0
2017-Sep-28 10:30N 40°38' W 074°04'0 0.0
2017-Sep-28 10:00N 40°38' W 074°04'0 0.0
2017-Sep-28 09:29N 40°38' W 074°04'0 0.0
2017-Sep-28 09:00N 40°38' W 074°04'0 0.0
2017-Sep-28 08:30N 40°38' W 074°04'0 0.2
2017-Sep-28 07:59N 40°38' W 074°04'0 0.2
2017-Sep-28 07:30N 40°38' W 074°04'0 0.0
2017-Sep-28 07:00N 40°38' W 074°04'0 0.0
2017-Sep-28 06:29N 40°38' W 074°04'0 0.0
2017-Sep-28 06:00N 40°38' W 074°04'0 0.0
2017-Sep-28 05:30N 40°38' W 074°04'  

Dump ship's entire track history